Time;durP1;ratioP1;P1;durP2;ratioP2;P2;SDS_P1;SDS_P2;PMS_P1;PMS_P2;Temp;Humidity;BMP_temperature;BMP_pressure;BME280_temperature;BME280_humidity;BME280_pressure;Samples;Min_cycle;Max_cycle;Signal;HPM_P1;HPM_P2
2023/08/03 00:02:08;;;;;;;1.90;1.05;;;20.00;99.90;;;;;;2585791;54;20033;31
2023/08/03 00:04:44;;;;;;;1.75;1.00;;;20.00;99.90;;;;;;2585731;54;20965;31
2023/08/03 00:07:19;;;;;;;2.25;1.25;;;20.00;99.90;;;;;;2585611;54;20046;31
2023/08/03 00:09:54;;;;;;;1.35;1.10;;;20.00;99.90;;;;;;2585776;54;20022;31
2023/08/03 00:12:31;;;;;;;3.25;1.40;;;19.90;99.90;;;;;;2696720;39;21771;31
2023/08/03 00:15:15;;;;;;;2.35;1.20;;;19.90;99.90;;;;;;2585691;54;20073;31
2023/08/03 00:17:52;;;;;;;3.40;1.55;;;19.90;99.90;;;;;;2585876;54;20040;31
2023/08/03 00:20:27;;;;;;;3.05;1.50;;;19.90;99.90;;;;;;2585671;54;20824;31
2023/08/03 00:23:02;;;;;;;1.60;1.30;;;19.90;99.90;;;;;;2604186;47;20932;31
2023/08/03 00:25:41;;;;;;;2.45;1.20;;;19.90;99.90;;;;;;2585739;54;20851;31
2023/08/03 00:28:14;;;;;;;4.07;1.38;;;19.90;99.90;;;;;;2585796;54;20026;31
2023/08/03 00:30:48;;;;;;;1.27;1.00;;;19.90;99.90;;;;;;2603922;47;20029;31
2023/08/03 00:33:35;;;;;;;2.63;1.00;;;19.90;99.90;;;;;;2585664;54;20910;31
2023/08/03 00:36:09;;;;;;;2.80;1.00;;;19.90;99.90;;;;;;2585572;54;20101;31
2023/08/03 00:38:48;;;;;;;1.88;1.00;;;19.90;99.90;;;;;;2597785;47;20881;31
2023/08/03 00:41:25;;;;;;;1.73;0.80;;;19.90;99.90;;;;;;2584667;54;20116;31
2023/08/03 00:44:03;;;;;;;2.55;1.42;;;19.90;99.90;;;;;;2586116;54;20038;31
2023/08/03 00:46:36;;;;;;;2.03;1.00;;;19.90;99.90;;;;;;2585306;54;20023;31
2023/08/03 00:49:12;;;;;;;4.20;1.20;;;19.90;99.90;;;;;;2683425;39;21601;31
2023/08/03 00:51:48;;;;;;;1.77;1.00;;;19.90;99.90;;;;;;2585612;54;20923;31
2023/08/03 00:54:23;;;;;;;3.38;0.88;;;19.90;99.90;;;;;;2585193;54;20831;31
2023/08/03 00:56:59;;;;;;;2.30;0.90;;;19.90;99.90;;;;;;2585624;54;20049;31
2023/08/03 00:59:33;;;;;;;2.25;0.90;;;19.90;99.90;;;;;;2585766;54;20856;31
2023/08/03 01:02:15;;;;;;;2.78;1.00;;;20.00;99.90;;;;;;2584952;54;20033;31
2023/08/03 01:04:51;;;;;;;2.20;0.90;;;20.00;99.90;;;;;;2585657;54;22397;31
2023/08/03 01:07:24;;;;;;;;;;;20.00;99.90;;;;;;2586617;54;20281;31
2023/08/03 01:09:58;;;;;;;1.75;1.00;;;20.00;99.90;;;;;;2585911;54;19934;31
2023/08/03 01:12:40;;;;;;;1.90;1.30;;;20.00;99.90;;;;;;2586544;54;20030;31
2023/08/03 01:15:14;;;;;;;2.50;0.97;;;20.00;99.90;;;;;;2586370;54;20270;31
2023/08/03 01:17:47;;;;;;;2.20;1.20;;;20.10;99.90;;;;;;2585569;54;20321;31
2023/08/03 01:20:21;;;;;;;2.65;1.10;;;20.10;99.90;;;;;;2585543;54;20246;31
2023/08/03 01:22:57;;;;;;;1.75;1.10;;;20.10;99.90;;;;;;2586500;54;20042;31
2023/08/03 01:25:32;;;;;;;3.25;1.20;;;20.10;99.90;;;;;;2586498;54;20840;31
2023/08/03 01:28:07;;;;;;;1.90;1.27;;;20.10;99.90;;;;;;2586237;54;20054;31
2023/08/03 01:30:39;;;;;;;2.15;1.33;;;20.10;99.90;;;;;;2586317;54;20118;31
2023/08/03 01:33:13;;;;;;;2.30;1.27;;;20.10;99.90;;;;;;2586400;54;20736;31
2023/08/03 01:35:48;;;;;;;4.05;1.38;;;20.10;99.90;;;;;;2586056;54;20893;31
2023/08/03 01:38:26;;;;;;;2.95;1.00;;;20.10;99.90;;;;;;2604895;46;20061;31
2023/08/03 01:41:05;;;;;;;2.30;1.30;;;20.10;99.90;;;;;;2684256;39;22373;31
2023/08/03 01:43:39;;;;;;;2.05;1.35;;;20.00;99.90;;;;;;2585966;54;20089;31
2023/08/03 01:46:15;;;;;;;1.67;1.10;;;20.00;99.90;;;;;;2586050;54;20139;31
2023/08/03 01:48:50;;;;;;;;;;;20.00;99.90;;;;;;2586361;54;20120;31
2023/08/03 01:51:25;;;;;;;2.15;1.10;;;20.00;99.90;;;;;;2604002;46;20765;31
2023/08/03 01:54:03;;;;;;;2.95;1.40;;;20.00;99.90;;;;;;2585801;54;20571;31
2023/08/03 01:56:39;;;;;;;2.05;1.50;;;20.00;99.90;;;;;;2604259;46;20108;31
2023/08/03 01:59:13;;;;;;;1.50;0.98;;;20.00;99.90;;;;;;2586913;54;21348;31
2023/08/03 02:01:50;;;;;;;4.32;1.38;;;20.00;99.90;;;;;;2586245;54;20026;31
2023/08/03 02:04:24;;;;;;;2.63;1.48;;;20.00;99.90;;;;;;2604842;46;20022;31
2023/08/03 02:07:08;;;;;;;3.13;1.30;;;20.00;99.90;;;;;;2586087;54;20109;31
2023/08/03 02:09:47;;;;;;;3.05;1.83;;;20.00;99.90;;;;;;2586325;54;20740;31
2023/08/03 02:12:21;;;;;;;2.60;1.40;;;20.10;99.90;;;;;;2586128;54;20821;31
2023/08/03 02:14:54;;;;;;;1.60;1.15;;;20.10;99.90;;;;;;2585989;54;20273;31
2023/08/03 02:17:31;;;;;;;2.00;1.40;;;20.10;99.90;;;;;;2586271;54;20053;31
2023/08/03 02:20:05;;;;;;;1.73;1.10;;;20.10;99.90;;;;;;2599113;46;20030;31
2023/08/03 02:22:43;;;;;;;2.17;1.10;;;20.20;99.90;;;;;;2590151;46;20040;31
2023/08/03 02:25:26;;;;;;;2.35;1.55;;;20.20;99.90;;;;;;2603422;46;20014;31
2023/08/03 02:28:00;;;;;;;2.80;1.40;;;20.20;99.90;;;;;;2684104;39;20438;31
2023/08/03 02:30:35;;;;;;;2.40;1.40;;;20.20;99.90;;;;;;2603941;46;21382;31
2023/08/03 02:33:14;;;;;;;2.25;1.50;;;20.20;99.90;;;;;;2586032;54;20033;31
2023/08/03 02:35:49;;;;;;;1.60;1.20;;;20.20;99.90;;;;;;2586110;54;20755;31
2023/08/03 02:38:26;;;;;;;2.10;1.30;;;20.20;99.90;;;;;;2586126;54;20032;31
2023/08/03 02:41:06;;;;;;;1.95;1.30;;;20.20;99.90;;;;;;2586225;54;20081;31
2023/08/03 02:43:40;;;;;;;2.00;1.10;;;20.20;99.90;;;;;;2702119;39;20471;31
2023/08/03 02:46:20;;;;;;;1.75;1.20;;;20.30;99.90;;;;;;2586001;54;20061;31
2023/08/03 02:48:57;;;;;;;2.83;1.17;;;20.30;99.90;;;;;;2585631;54;20843;31
2023/08/03 02:51:33;;;;;;;3.78;1.15;;;20.30;99.90;;;;;;2586184;54;20882;31
2023/08/03 02:54:08;;;;;;;2.03;1.13;;;20.30;99.90;;;;;;2586325;54;20748;31
2023/08/03 02:56:53;;;;;;;1.98;1.20;;;20.30;99.90;;;;;;2585955;54;20023;31
2023/08/03 02:59:28;;;;;;;2.85;1.00;;;20.30;99.90;;;;;;2604331;46;21306;31
2023/08/03 03:02:04;;;;;;;3.05;1.02;;;20.30;99.90;;;;;;2585783;54;20033;31
2023/08/03 03:04:47;;;;;;;3.47;1.40;;;20.30;99.90;;;;;;2702299;39;21526;31
2023/08/03 03:07:20;;;;;;;2.75;1.45;;;20.30;99.90;;;;;;2604437;46;20269;31
2023/08/03 03:10:00;;;;;;;3.47;0.97;;;20.30;99.90;;;;;;2585048;54;21242;31
2023/08/03 03:12:40;;;;;;;2.28;1.02;;;20.30;99.90;;;;;;2586188;54;20034;31
2023/08/03 03:15:21;;;;;;;3.37;1.60;;;20.30;99.90;;;;;;2586354;54;20026;31
2023/08/03 03:18:00;;;;;;;3.85;1.20;;;20.30;99.90;;;;;;2604218;46;20085;31
2023/08/03 03:20:33;;;;;;;2.10;1.13;;;20.30;99.90;;;;;;2585738;54;20037;31
2023/08/03 03:23:09;;;;;;;3.83;1.15;;;20.30;99.90;;;;;;2586075;54;22074;31
2023/08/03 03:25:51;;;;;;;2.65;1.10;;;20.30;99.90;;;;;;2604031;46;20914;31
2023/08/03 03:28:31;;;;;;;2.63;1.15;;;20.30;99.90;;;;;;2585198;54;20988;31
2023/08/03 03:31:08;;;;;;;2.20;1.30;;;20.30;99.90;;;;;;2585542;54;20104;31
2023/08/03 03:33:47;;;;;;;2.30;1.00;;;20.30;99.90;;;;;;2585577;54;20042;31
2023/08/03 03:36:22;;;;;;;2.97;1.27;;;20.30;99.90;;;;;;2595368;46;21047;31
2023/08/03 03:38:58;;;;;;;3.40;1.40;;;20.30;99.90;;;;;;2603106;46;20853;31
2023/08/03 03:41:34;;;;;;;;;;;20.30;99.90;;;;;;2586404;54;20281;31
2023/08/03 03:44:13;;;;;;;2.33;1.20;;;20.30;99.90;;;;;;2586148;54;19941;31
2023/08/03 03:46:47;;;;;;;3.22;1.48;;;20.20;99.90;;;;;;2602440;46;20752;31
2023/08/03 03:49:21;;;;;;;3.20;1.30;;;20.20;99.90;;;;;;2585665;54;20875;31
2023/08/03 03:51:57;;;;;;;2.20;1.40;;;20.20;99.90;;;;;;2585566;54;20038;31
2023/08/03 03:54:34;;;;;;;2.10;1.08;;;20.20;99.90;;;;;;2585813;54;20030;31
2023/08/03 03:57:11;;;;;;;1.70;1.10;;;20.20;99.90;;;;;;2585894;54;20848;31
2023/08/03 03:59:49;;;;;;;1.80;1.00;;;20.20;99.90;;;;;;2683665;39;22428;31
2023/08/03 04:02:24;;;;;;;2.13;1.25;;;20.20;99.90;;;;;;2584879;54;20845;31
2023/08/03 04:05:02;;;;;;;3.45;1.38;;;20.20;99.90;;;;;;2585003;54;20778;31
2023/08/03 04:07:35;;;;;;;2.55;0.90;;;20.20;99.90;;;;;;2586028;54;20755;31
2023/08/03 04:10:12;;;;;;;1.60;1.00;;;20.20;99.90;;;;;;2585674;54;20079;31
2023/08/03 04:12:48;;;;;;;2.40;1.20;;;20.20;99.90;;;;;;2604593;46;20528;31
2023/08/03 04:15:28;;;;;;;1.55;1.00;;;20.20;99.90;;;;;;2585918;54;20026;31
2023/08/03 04:18:02;;;;;;;1.83;1.13;;;20.20;99.90;;;;;;2585679;54;21220;31
2023/08/03 04:20:39;;;;;;;2.67;1.30;;;20.20;99.90;;;;;;2701866;39;21474;31
2023/08/03 04:23:13;;;;;;;3.05;1.63;;;20.20;99.90;;;;;;2585644;54;20157;31
2023/08/03 04:25:50;;;;;;;2.85;1.25;;;20.20;99.90;;;;;;2585727;54;20835;31
2023/08/03 04:28:30;;;;;;;3.90;1.30;;;20.20;99.90;;;;;;2585855;54;20832;31
2023/08/03 04:31:07;;;;;;;3.90;1.30;;;20.20;99.90;;;;;;2585868;54;20027;31
2023/08/03 04:33:51;;;;;;;7.78;1.30;;;20.20;99.90;;;;;;2585645;54;21213;31
2023/08/03 04:36:27;;;;;;;1.20;0.90;;;20.20;99.90;;;;;;2604465;47;20030;31
2023/08/03 04:39:00;;;;;;;4.90;1.50;;;20.20;99.90;;;;;;2586730;54;21322;31
2023/08/03 04:41:37;;;;;;;2.10;1.17;;;20.20;99.90;;;;;;2604992;46;20027;31
2023/08/03 04:44:11;;;;;;;2.90;1.20;;;20.20;99.90;;;;;;2586594;54;20029;31
2023/08/03 04:46:54;;;;;;;3.60;1.20;;;20.30;99.90;;;;;;2586618;54;20231;31
2023/08/03 04:49:30;;;;;;;2.47;1.30;;;20.30;99.90;;;;;;2605332;46;21226;31
2023/08/03 04:52:09;;;;;;;2.45;1.15;;;20.30;99.90;;;;;;2586400;54;20879;31
2023/08/03 04:54:45;;;;;;;3.73;1.00;;;20.30;99.90;;;;;;2586553;54;20132;31
2023/08/03 04:57:18;;;;;;;4.05;1.65;;;20.30;99.90;;;;;;2586412;54;21197;31
2023/08/03 04:59:56;;;;;;;2.40;1.20;;;20.30;99.90;;;;;;2586577;54;20054;31
2023/08/03 05:02:31;;;;;;;3.03;1.20;;;20.40;99.90;;;;;;2586676;54;20026;31
2023/08/03 05:05:12;;;;;;;2.45;1.30;;;20.40;99.90;;;;;;2586540;54;20030;31
2023/08/03 05:07:48;;;;;;;3.05;1.10;;;20.40;99.90;;;;;;2605043;46;20053;31
2023/08/03 05:10:29;;;;;;;6.53;1.38;;;20.40;99.90;;;;;;2586532;54;20077;31
2023/08/03 05:13:07;;;;;;;8.13;2.13;;;20.40;99.90;;;;;;2586230;54;20034;31
2023/08/03 05:15:45;;;;;;;39.72;6.55;;;20.40;99.90;;;;;;2585533;54;20026;31
2023/08/03 05:18:24;;;;;;;6.57;1.83;;;20.40;99.90;;;;;;2605221;46;19939;31
2023/08/03 05:21:09;;;;;;;2.97;1.20;;;20.40;99.90;;;;;;2586375;54;20034;31
2023/08/03 05:23:50;;;;;;;3.15;1.40;;;20.40;99.90;;;;;;2586262;54;20933;31
2023/08/03 05:26:26;;;;;;;4.15;1.00;;;20.40;99.90;;;;;;2586439;54;20033;31
2023/08/03 05:29:04;;;;;;;9.40;1.30;;;20.40;99.90;;;;;;2586730;54;20046;31
2023/08/03 05:31:39;;;;;;;3.10;1.10;;;20.40;99.90;;;;;;2586266;54;20864;31
2023/08/03 05:34:18;;;;;;;2.55;1.10;;;20.40;99.90;;;;;;2585491;54;20030;31
2023/08/03 05:36:58;;;;;;;2.58;0.95;;;20.40;99.90;;;;;;2586308;46;20947;31
2023/08/03 05:39:34;;;;;;;3.35;1.05;;;20.50;99.90;;;;;;2585513;54;20022;31
2023/08/03 05:42:09;;;;;;;3.10;1.07;;;20.50;99.90;;;;;;2586358;54;20868;31
2023/08/03 05:44:48;;;;;;;4.00;1.48;;;20.50;99.90;;;;;;2585678;54;20034;31
2023/08/03 05:47:31;;;;;;;2.78;0.75;;;20.60;99.90;;;;;;2586609;54;20049;31
2023/08/03 05:50:08;;;;;;;3.03;1.10;;;20.70;99.90;;;;;;2586007;54;20050;31
2023/08/03 05:55:21;;;;;;;4.47;0.98;;;21.00;99.90;;;;;;2604686;46;20026;31
2023/08/03 05:57:56;;;;;;;3.75;1.00;;;21.00;99.90;;;;;;2586356;54;20902;31
2023/08/03 06:00:33;;;;;;;4.35;1.02;;;21.30;99.90;;;;;;2594557;46;20061;31
2023/08/03 06:03:07;;;;;;;2.33;1.08;;;21.50;99.90;;;;;;2585438;54;20886;31
2023/08/03 06:05:45;;;;;;;3.83;1.10;;;21.50;99.90;;;;;;2586618;54;20033;31
2023/08/03 06:08:20;;;;;;;3.53;1.30;;;21.60;99.90;;;;;;2586174;54;20177;31
2023/08/03 06:10:56;;;;;;;3.10;0.90;;;21.60;99.90;;;;;;2585690;54;21100;31
2023/08/03 06:13:37;;;;;;;3.40;1.20;;;21.60;99.90;;;;;;2610025;31;22308;31
2023/08/03 06:16:17;;;;;;;10.73;1.38;;;21.50;99.90;;;;;;2585336;54;20070;31
2023/08/03 06:18:57;;;;;;;5.10;1.35;;;21.50;99.90;;;;;;2604748;46;20109;31
2023/08/03 06:21:30;;;;;;;3.17;1.13;;;21.50;99.90;;;;;;2604950;46;20833;31
2023/08/03 06:24:05;;;;;;;5.53;0.80;;;21.50;99.90;;;;;;2586673;54;21097;31
2023/08/03 06:26:44;;;;;;;4.00;1.43;;;21.50;99.90;;;;;;2586273;54;20247;31
2023/08/03 06:29:20;;;;;;;4.97;1.23;;;21.50;99.90;;;;;;2686315;39;20395;31
2023/08/03 06:31:54;;;;;;;4.50;1.10;;;21.50;99.90;;;;;;2586032;54;20938;31
2023/08/03 06:34:31;;;;;;;3.40;0.90;;;21.50;99.90;;;;;;2604828;46;20031;31
2023/08/03 06:37:06;;;;;;;5.90;1.10;;;21.50;99.90;;;;;;2604608;46;20086;31
2023/08/03 06:39:42;;;;;;;5.30;0.98;;;21.60;99.90;;;;;;2603993;46;20956;31
2023/08/03 06:42:20;;;;;;;;;;;21.60;99.90;;;;;;2586277;54;20922;31
2023/08/03 06:44:52;;;;;;;2.70;1.10;;;21.60;99.90;;;;;;2604222;46;19942;31
2023/08/03 06:47:27;;;;;;;3.50;1.00;;;21.60;99.90;;;;;;2585934;54;20062;31
2023/08/03 06:50:03;;;;;;;4.35;1.40;;;21.60;99.90;;;;;;2585663;54;20022;31
2023/08/03 06:52:35;;;;;;;;;;;21.70;99.90;;;;;;2604629;46;20037;31
2023/08/03 06:55:10;;;;;;;4.73;1.23;;;21.70;99.90;;;;;;2585148;54;19950;31
2023/08/03 06:57:47;;;;;;;7.43;1.70;;;21.70;99.90;;;;;;2586328;54;20865;31
2023/08/03 07:00:23;;;;;;;5.63;1.20;;;21.60;99.90;;;;;;2585933;54;20030;31
2023/08/03 07:02:55;;;;;;;3.55;1.20;;;21.60;99.90;;;;;;2586125;54;20281;31
2023/08/03 07:05:31;;;;;;;4.63;1.10;;;21.60;99.90;;;;;;2683839;39;20652;31
2023/08/03 07:08:09;;;;;;;4.43;1.20;;;21.60;99.90;;;;;;2585932;54;20572;31
2023/08/03 07:10:43;;;;;;;4.77;1.20;;;21.60;99.90;;;;;;2585766;54;20026;31
2023/08/03 07:13:19;;;;;;;3.80;1.10;;;21.60;99.90;;;;;;2585895;54;20031;31
2023/08/03 07:15:55;;;;;;;5.60;1.33;;;21.50;99.90;;;;;;2586167;54;20877;31
2023/08/03 07:18:51;;;;;;;5.18;1.48;;;21.50;99.90;;;;;;2586197;54;20035;31
2023/08/03 07:21:29;;;;;;;4.03;1.40;;;21.50;99.90;;;;;;2585677;54;20943;31
2023/08/03 07:24:11;;;;;;;3.42;0.95;;;21.50;99.90;;;;;;2604561;46;20041;31
2023/08/03 07:26:48;;;;;;;7.13;1.48;;;21.50;99.90;;;;;;2604107;46;20027;31
2023/08/03 07:29:28;;;;;;;3.80;1.35;;;21.60;99.90;;;;;;2585824;54;21157;31
2023/08/03 07:32:04;;;;;;;4.15;0.95;;;21.70;99.90;;;;;;2586269;54;20986;31
2023/08/03 07:34:41;;;;;;;3.43;0.90;;;21.80;99.90;;;;;;2586071;54;20893;31
2023/08/03 07:37:19;;;;;;;5.03;1.20;;;21.80;99.90;;;;;;2586274;54;20887;31
2023/08/03 07:39:55;;;;;;;2.58;1.20;;;21.90;99.90;;;;;;2586056;54;20035;31
2023/08/03 07:42:34;;;;;;;2.95;0.95;;;22.00;99.90;;;;;;2586120;54;20859;31
2023/08/03 07:45:15;;;;;;;3.65;1.10;;;22.00;99.90;;;;;;2586096;54;20030;31
2023/08/03 07:47:57;;;;;;;;;;;22.00;99.90;;;;;;2585882;54;20579;31
2023/08/03 07:50:38;;;;;;;3.55;1.13;;;22.00;99.90;;;;;;2586104;54;20894;31
2023/08/03 07:53:17;;;;;;;4.33;1.10;;;22.10;99.90;;;;;;2604765;46;20818;31
2023/08/03 07:55:55;;;;;;;5.70;1.10;;;22.50;99.90;;;;;;2585618;54;20033;31
2023/08/03 07:58:32;;;;;;;2.88;0.95;;;22.70;99.90;;;;;;2601853;46;20026;31
2023/08/03 08:01:13;;;;;;;4.40;1.10;;;23.30;99.90;;;;;;2586169;54;20843;31
2023/08/03 08:03:59;;;;;;;2.88;0.95;;;23.80;99.90;;;;;;2586165;54;20030;31
2023/08/03 08:06:36;;;;;;;5.15;1.38;;;24.40;99.90;;;;;;2602900;46;20827;31
2023/08/03 08:09:13;;;;;;;3.17;0.82;;;24.80;99.90;;;;;;2585719;54;20947;31
2023/08/03 08:11:55;;;;;;;4.03;1.10;;;25.30;99.90;;;;;;2583335;54;21115;31
2023/08/03 08:14:31;;;;;;;3.70;1.10;;;25.80;99.90;;;;;;2581804;54;20931;31
2023/08/03 08:17:16;;;;;;;3.20;1.00;;;26.00;99.90;;;;;;2585518;54;20026;31
2023/08/03 08:19:58;;;;;;;8.15;1.17;;;25.80;99.90;;;;;;2586053;54;20053;31
2023/08/03 08:22:34;;;;;;;3.88;1.00;;;25.80;99.90;;;;;;2585591;54;20089;31
2023/08/03 08:25:13;;;;;;;3.63;1.20;;;25.60;99.90;;;;;;2584989;54;20783;31
2023/08/03 08:27:47;;;;;;;3.90;1.02;;;25.40;99.90;;;;;;2592185;47;22587;31
2023/08/03 08:30:23;;;;;;;3.75;0.90;;;25.20;99.90;;;;;;2585023;54;20875;31
2023/08/03 08:33:07;;;;;;;3.13;0.90;;;25.10;99.90;;;;;;2598332;47;20319;31
2023/08/03 08:35:44;;;;;;;3.05;0.80;;;25.00;99.90;;;;;;2584873;54;20527;31
2023/08/03 08:38:20;;;;;;;2.50;1.00;;;24.90;99.90;;;;;;2585663;54;20795;31
2023/08/03 08:41:06;;;;;;;3.70;1.10;;;25.10;99.90;;;;;;2585909;54;20031;31
2023/08/03 08:43:45;;;;;;;8.00;1.10;;;25.30;99.90;;;;;;2683586;39;22269;31
2023/08/03 08:46:24;;;;;;;3.40;0.95;;;25.20;99.90;;;;;;2585598;54;20027;31
2023/08/03 08:49:04;;;;;;;2.90;0.90;;;25.10;99.90;;;;;;2604216;47;20023;31
2023/08/03 08:51:41;;;;;;;7.82;1.23;;;25.10;99.90;;;;;;2604386;47;20049;31
2023/08/03 08:54:19;;;;;;;6.85;0.98;;;25.20;99.90;;;;;;2585837;54;20803;31
2023/08/03 08:57:00;;;;;;;3.63;0.90;;;25.20;99.90;;;;;;2585741;54;20029;31
2023/08/03 09:00:05;;;;;;;3.87;0.90;;;25.40;99.90;;;;;;2604139;47;20023;31
2023/08/03 09:02:43;;;;;;;3.80;1.15;;;25.60;99.90;;;;;;2585807;54;20026;31
2023/08/03 09:05:21;;;;;;;3.97;1.00;;;25.80;99.90;;;;;;2585539;54;20161;31
2023/08/03 09:08:04;;;;;;;4.17;1.17;;;25.80;99.90;;;;;;2585860;54;20030;31
2023/08/03 09:10:57;;;;;;;6.23;1.10;;;26.20;99.90;;;;;;2585651;54;20116;31
2023/08/03 09:16:01;;;;;;;5.00;0.90;;;26.10;99.90;;;;;;2585351;54;20464;31
2023/08/03 09:18:47;;;;;;;4.63;0.95;;;25.80;99.90;;;;;;2604050;47;20850;31
2023/08/03 09:21:25;;;;;;;2.87;0.97;;;25.80;99.90;;;;;;2585563;54;20054;31
2023/08/03 09:24:01;;;;;;;5.15;1.83;;;25.50;99.90;;;;;;2585926;54;20045;31
2023/08/03 09:26:45;;;;;;;5.13;1.00;;;25.30;99.90;;;;;;2585617;54;21308;31
2023/08/03 09:29:30;;;;;;;3.65;1.45;;;25.40;99.90;;;;;;2586524;54;20026;31
2023/08/03 09:32:11;;;;;;;3.15;0.90;;;25.80;99.90;;;;;;2586175;54;20864;31
2023/08/03 09:34:50;;;;;;;3.55;1.75;;;26.30;99.90;;;;;;2586399;54;20849;31
2023/08/03 09:37:40;;;;;;;3.00;1.00;;;26.90;99.90;;;;;;2684190;39;21537;31
2023/08/03 09:40:19;;;;;;;5.00;1.10;;;27.10;99.90;;;;;;2586006;54;20816;31
2023/08/03 09:42:53;;;;;;;4.00;1.00;;;26.90;99.90;;;;;;2586013;54;20023;31
2023/08/03 09:45:27;;;;;;;8.13;1.20;;;26.80;99.90;;;;;;2586406;54;20755;31
2023/08/03 09:48:06;;;;;;;5.72;1.38;;;26.70;99.90;;;;;;2586518;54;20027;31
2023/08/03 09:50:52;;;;;;;2.40;0.93;;;26.90;99.90;;;;;;2585395;54;19942;31
2023/08/03 09:53:33;;;;;;;2.83;1.08;;;26.70;99.90;;;;;;2586280;54;20038;31
2023/08/03 09:56:11;;;;;;;4.63;1.10;;;26.70;99.90;;;;;;2586367;54;20030;31
2023/08/03 09:58:50;;;;;;;3.65;1.00;;;26.40;99.90;;;;;;2604352;46;20039;31
2023/08/03 10:01:29;;;;;;;3.35;0.90;;;26.20;99.90;;;;;;2586039;54;20764;31
2023/08/03 10:04:05;;;;;;;2.38;0.90;;;26.00;99.90;;;;;;2586329;54;20026;31
2023/08/03 10:06:49;;;;;;;5.13;0.90;;;25.90;99.90;;;;;;2586378;54;20031;31
2023/08/03 10:09:29;;;;;;;5.72;0.90;;;25.80;99.90;;;;;;2586169;54;20962;31
2023/08/03 10:12:04;;;;;;;2.10;0.70;;;25.70;99.90;;;;;;2585866;54;20034;31
2023/08/03 10:14:36;;;;;;;5.00;0.57;;;25.80;99.90;;;;;;2684166;39;20402;31
2023/08/03 10:17:12;;;;;;;2.93;0.70;;;25.80;99.90;;;;;;2683950;39;21730;31
2023/08/03 10:19:46;;;;;;;3.38;0.57;;;25.90;99.90;;;;;;2586052;54;20332;31
2023/08/03 10:22:26;;;;;;;4.97;0.70;;;25.80;99.90;;;;;;2773579;31;22430;31
2023/08/03 10:25:21;;;;;;;3.80;0.60;;;25.70;99.90;;;;;;2604410;46;20035;31
2023/08/03 10:28:14;;;;;;;3.55;0.80;;;25.70;99.90;;;;;;2586442;54;20055;31
2023/08/03 10:31:10;;;;;;;4.40;0.50;;;25.70;99.90;;;;;;2585995;54;20113;31
2023/08/03 10:34:17;;;;;;;2.17;0.55;;;25.60;99.90;;;;;;2604041;46;20724;31
2023/08/03 10:36:51;;;;;;;4.13;0.60;;;25.60;99.90;;;;;;2604764;47;20483;31
2023/08/03 10:39:53;;;;;;;2.50;0.80;;;25.60;99.90;;;;;;2586175;54;20019;31
2023/08/03 10:42:34;;;;;;;7.05;0.70;;;25.60;99.90;;;;;;2586031;54;20034;31
2023/08/03 10:45:31;;;;;;;4.45;0.70;;;25.70;99.90;;;;;;2586252;54;20022;31
2023/08/03 10:48:36;;;;;;;3.65;0.77;;;25.70;99.90;;;;;;2585781;54;20863;31
2023/08/03 10:51:15;;;;;;;4.43;0.87;;;25.70;99.90;;;;;;2585644;54;20882;31
2023/08/03 10:53:53;;;;;;;2.40;1.00;;;25.70;99.90;;;;;;2604591;46;20034;31
2023/08/03 10:56:30;;;;;;;5.55;0.65;;;25.60;99.90;;;;;;2604615;46;20959;31
2023/08/03 10:59:08;;;;;;;7.85;0.90;;;25.80;99.90;;;;;;2586032;54;20504;31
2023/08/03 11:01:40;;;;;;;4.65;0.73;;;26.10;99.90;;;;;;2585985;54;20761;31
2023/08/03 11:04:17;;;;;;;5.50;0.70;;;26.40;99.90;;;;;;2604387;46;20755;31
2023/08/03 11:06:53;;;;;;;2.25;0.50;;;26.70;99.90;;;;;;2683702;39;20384;31
2023/08/03 11:09:29;;;;;;;6.65;0.70;;;26.90;99.90;;;;;;2585075;54;20030;31
2023/08/03 11:12:01;;;;;;;;;;;27.00;99.90;;;;;;2585898;54;20093;31
2023/08/03 11:14:41;;;;;;;3.05;0.65;;;27.20;99.90;;;;;;2585591;54;20775;31
2023/08/03 11:17:19;;;;;;;2.63;0.50;;;27.50;99.90;;;;;;2585904;54;20893;31
2023/08/03 11:19:53;;;;;;;3.50;0.40;;;27.60;99.90;;;;;;2586059;54;20831;31
2023/08/03 11:22:31;;;;;;;2.80;0.75;;;27.60;99.90;;;;;;2585020;54;20260;31
2023/08/03 11:25:10;;;;;;;3.97;1.10;;;27.60;99.90;;;;;;2585640;54;20026;31
2023/08/03 11:27:43;;;;;;;5.70;0.65;;;27.50;99.90;;;;;;2585706;54;20925;31
2023/08/03 11:30:22;;;;;;;9.73;0.63;;;27.40;99.90;;;;;;2585580;54;20874;31
2023/08/03 11:33:00;;;;;;;5.72;0.57;;;27.40;99.90;;;;;;2583729;54;20401;31
2023/08/03 11:35:37;;;;;;;5.97;0.55;;;27.30;99.90;;;;;;2583747;54;20327;31
2023/08/03 11:38:10;;;;;;;6.05;0.65;;;27.30;99.90;;;;;;2585606;54;20890;31
2023/08/03 11:41:27;;;;;;;5.40;0.67;;;27.20;99.90;;;;;;2585433;54;20790;31
2023/08/03 11:44:17;;;;;;;2.28;0.75;;;27.20;99.90;;;;;;2604194;46;20026;31
2023/08/03 11:47:04;;;;;;;2.58;0.50;;;27.20;99.90;;;;;;2585376;54;20077;31
2023/08/03 11:49:38;;;;;;;5.72;0.82;;;27.30;99.90;;;;;;2585745;54;20113;31
2023/08/03 11:52:22;;;;;;;3.30;0.80;;;27.50;99.90;;;;;;2604262;46;20761;31
2023/08/03 11:55:07;;;;;;;7.30;0.80;;;27.60;99.90;;;;;;2585565;54;20915;31
2023/08/03 12:00:35;;;;;;;2.60;0.98;;;27.70;99.90;;;;;;2602748;46;20757;31
2023/08/03 12:03:13;;;;;;;2.00;0.50;;;27.70;99.90;;;;;;2603631;46;20748;31
2023/08/03 12:05:53;;;;;;;5.07;0.80;;;27.60;99.90;;;;;;2585861;54;20851;31
2023/08/03 12:08:46;;;;;;;3.05;0.70;;;27.60;99.90;;;;;;2585773;54;20247;31
2023/08/03 12:11:22;;;;;;;1.88;0.52;;;27.60;99.90;;;;;;2585344;54;20769;31
2023/08/03 12:14:02;;;;;;;4.07;0.60;;;27.60;99.90;;;;;;2682613;39;20533;31
2023/08/03 12:16:35;;;;;;;5.07;0.60;;;27.60;99.90;;;;;;2585798;54;21011;31
2023/08/03 12:19:11;;;;;;;6.90;1.25;;;27.60;99.90;;;;;;2604051;46;20019;31
2023/08/03 12:21:46;;;;;;;5.65;1.00;;;27.70;99.90;;;;;;2603768;46;20026;31
2023/08/03 12:24:28;;;;;;;5.27;0.60;;;27.70;99.90;;;;;;2603650;46;20042;31
2023/08/03 12:27:04;;;;;;;3.63;0.70;;;27.80;99.90;;;;;;2590260;39;20276;31
2023/08/03 12:29:45;;;;;;;6.75;0.80;;;27.70;99.90;;;;;;2585155;54;20277;31
2023/08/03 12:32:22;;;;;;;5.22;0.90;;;27.50;99.90;;;;;;2585650;54;22495;31
2023/08/03 12:35:01;;;;;;;3.43;0.63;;;27.60;99.90;;;;;;2585565;54;20864;31
2023/08/03 12:37:38;;;;;;;5.45;0.85;;;27.60;99.90;;;;;;2585268;54;20922;31
2023/08/03 12:40:14;;;;;;;4.43;0.70;;;27.70;99.90;;;;;;2585790;54;20930;31
2023/08/03 12:42:50;;;;;;;2.60;0.40;;;27.80;99.90;;;;;;2585787;54;20103;31
2023/08/03 12:45:23;;;;;;;2.00;0.60;;;27.90;99.90;;;;;;2683570;39;20499;31
2023/08/03 12:47:57;;;;;;;2.10;0.50;;;27.90;99.70;;;;;;2585826;54;20875;31
2023/08/03 12:50:44;;;;;;;3.42;0.50;;;27.90;99.90;;;;;;2585744;54;20864;31
2023/08/03 12:53:20;;;;;;;1.75;0.60;;;28.00;99.70;;;;;;2604530;47;21313;31
2023/08/03 12:56:00;;;;;;;2.47;0.50;;;28.00;99.30;;;;;;2585999;54;20773;31
2023/08/03 12:58:34;;;;;;;1.50;0.30;;;28.00;98.90;;;;;;2585875;54;20724;31
2023/08/03 13:01:12;;;;;;;3.25;0.40;;;27.90;98.40;;;;;;2605046;46;20755;31
2023/08/03 13:03:46;;;;;;;3.50;0.40;;;27.90;98.60;;;;;;2586663;54;20022;31
2023/08/03 13:06:27;;;;;;;4.80;0.70;;;27.80;99.20;;;;;;2586784;54;20054;31
2023/08/03 13:09:07;;;;;;;4.75;0.50;;;27.70;99.20;;;;;;2604979;46;20309;31
2023/08/03 13:11:43;;;;;;;3.55;0.80;;;27.70;98.60;;;;;;2586257;54;20022;31
2023/08/03 13:14:21;;;;;;;4.67;0.60;;;27.70;99.70;;;;;;2586244;54;20903;31
2023/08/03 13:17:01;;;;;;;1.95;0.60;;;27.70;99.90;;;;;;2585538;54;20089;31
2023/08/03 13:19:35;;;;;;;4.40;0.70;;;27.80;98.90;;;;;;2587243;54;20047;31
2023/08/03 13:22:14;;;;;;;2.75;0.80;;;27.80;98.90;;;;;;2586047;54;19935;31
2023/08/03 13:24:51;;;;;;;3.25;0.60;;;27.80;98.30;;;;;;2586132;54;20060;31
2023/08/03 13:27:30;;;;;;;2.53;0.60;;;27.60;98.40;;;;;;2584949;54;20866;31
2023/08/03 13:30:18;;;;;;;2.90;0.30;;;27.60;98.70;;;;;;2585474;54;20898;31
2023/08/03 13:32:52;;;;;;;2.15;0.40;;;27.60;98.30;;;;;;2586546;54;20029;31
2023/08/03 13:35:27;;;;;;;4.90;0.45;;;27.70;98.90;;;;;;2586094;54;21330;31
2023/08/03 13:38:05;;;;;;;3.38;0.82;;;27.80;97.40;;;;;;2586427;54;20742;31
2023/08/03 13:40:37;;;;;;;3.15;0.50;;;27.70;97.50;;;;;;2586633;54;20033;31
2023/08/03 13:43:15;;;;;;;2.40;0.50;;;27.60;97.50;;;;;;2586414;54;20941;31
2023/08/03 13:45:49;;;;;;;2.80;0.50;;;27.60;98.00;;;;;;2585193;54;20076;31
2023/08/03 13:48:22;;;;;;;3.10;0.30;;;27.60;97.30;;;;;;2584274;54;20958;31
2023/08/03 13:51:01;;;;;;;2.45;0.40;;;27.60;97.00;;;;;;2601682;46;20137;31
2023/08/03 13:53:38;;;;;;;3.35;0.40;;;27.70;97.10;;;;;;2585210;54;20018;31
2023/08/03 13:56:18;;;;;;;4.65;0.65;;;27.80;97.40;;;;;;2605116;46;20740;31
2023/08/03 13:59:04;;;;;;;3.45;0.35;;;27.90;96.40;;;;;;2586186;54;21611;31
2023/08/03 14:01:39;;;;;;;2.37;0.40;;;27.90;95.40;;;;;;2604796;46;21573;31
2023/08/03 14:04:37;;;;;;;5.15;0.55;;;27.90;95.70;;;;;;2586363;54;20910;31